TimeCDT,TemperatureF,Dew PointF,Humidity,Sea Level PressureIn,VisibilityMPH,Wind Direction,Wind SpeedMPH,Gust SpeedMPH,PrecipitationIn,Events,Conditions,WindDirDegrees,DateUTC
12:15 AM,58.1,55.4,91,30.04,10.0,SW,9.2,-,N/A,Rain,Light Rain,230,2012-10-04 05:15:00
12:35 AM,57.6,55.6,93,30.04,7.0,WSW,6.9,-,N/A,Rain,Light Rain,250,2012-10-04 05:35:00
12:55 AM,57.2,55.6,94,30.04,10.0,SW,5.8,-,N/A,Rain,Light Rain,220,2012-10-04 05:55:00
1:15 AM,56.8,54.5,92,30.04,10.0,SW,6.9,-,N/A,,Overcast,220,2012-10-04 06:15:00
1:35 AM,56.5,54.5,93,30.04,10.0,SSW,4.6,-,N/A,,Overcast,200,2012-10-04 06:35:00
1:55 AM,56.5,54.0,91,30.05,10.0,SW,6.9,-,N/A,,Overcast,220,2012-10-04 06:55:00
2:15 AM,56.5,53.8,91,30.05,10.0,SSW,4.6,-,N/A,,Overcast,200,2012-10-04 07:15:00
2:35 AM,56.3,54.5,94,30.04,10.0,South,4.6,-,N/A,,Overcast,170,2012-10-04 07:35:00
2:55 AM,56.1,54.5,94,30.04,10.0,South,6.9,-,N/A,,Overcast,180,2012-10-04 07:55:00
3:15 AM,55.8,54.5,96,30.04,10.0,SSE,6.9,-,N/A,,Overcast,160,2012-10-04 08:15:00
3:35 AM,55.8,54.5,96,30.04,10.0,South,6.9,-,N/A,,Overcast,170,2012-10-04 08:35:00
3:55 AM,55.6,54.5,96,30.05,10.0,South,6.9,-,N/A,,Overcast,180,2012-10-04 08:55:00
4:15 AM,55.4,54.0,95,30.05,10.0,South,6.9,-,N/A,,Overcast,190,2012-10-04 09:15:00
4:35 AM,54.1,53.2,97,30.05,10.0,South,5.8,-,N/A,,Mostly Cloudy,190,2012-10-04 09:35:00
4:55 AM,53.1,52.2,97,30.05,10.0,South,6.9,-,N/A,,Scattered Clouds,180,2012-10-04 09:55:00
5:15 AM,52.7,51.8,97,30.06,10.0,South,8.1,-,N/A,,Clear,190,2012-10-04 10:15:00
5:35 AM,53.4,52.2,95,30.06,10.0,South,9.2,-,N/A,,Clear,190,2012-10-04 10:35:00
5:55 AM,54.3,52.7,94,30.05,10.0,South,9.2,-,N/A,,Clear,190,2012-10-04 10:55:00
6:15 AM,54.0,52.3,94,30.05,10.0,SSW,8.1,-,N/A,,Clear,200,2012-10-04 11:15:00
6:35 AM,53.6,52.2,95,30.05,10.0,South,6.9,-,N/A,,Clear,190,2012-10-04 11:35:00
6:55 AM,52.9,51.8,96,30.05,7.0,South,8.1,-,N/A,,Clear,190,2012-10-04 11:55:00
7:15 AM,53.1,52.2,97,30.06,7.0,South,8.1,-,N/A,,Clear,190,2012-10-04 12:15:00
7:35 AM,54.7,53.8,97,30.05,7.0,South,8.1,-,N/A,,Clear,180,2012-10-04 12:35:00
7:55 AM,56.5,54.9,94,30.06,7.0,South,6.9,-,N/A,,Clear,190,2012-10-04 12:55:00
8:15 AM,58.1,55.8,92,30.06,10.0,SSW,6.9,-,N/A,,Clear,200,2012-10-04 13:15:00
8:35 AM,59.9,56.3,88,30.06,10.0,SSW,9.2,-,N/A,,Clear,210,2012-10-04 13:35:00
8:55 AM,61.2,56.5,85,30.06,10.0,SSW,9.2,-,N/A,,Clear,210,2012-10-04 13:55:00
9:15 AM,62.6,56.5,80,30.06,10.0,SSW,11.5,-,N/A,,Clear,210,2012-10-04 14:15:00
9:35 AM,64.4,56.8,76,30.05,10.0,SSW,10.4,-,N/A,,Clear,200,2012-10-04 14:35:00
9:55 AM,65.5,56.5,73,30.04,10.0,SSW,12.7,-,N/A,,Clear,200,2012-10-04 14:55:00
10:15 AM,67.5,56.3,67,30.04,10.0,SSW,13.8,18.4,N/A,,Clear,210,2012-10-04 15:15:00
10:35 AM,69.4,56.3,63,30.04,10.0,SSW,10.4,-,N/A,,Clear,210,2012-10-04 15:35:00
10:55 AM,70.7,56.5,61,30.04,10.0,SSW,13.8,-,N/A,,Clear,210,2012-10-04 15:55:00
11:15 AM,72.7,55.2,54,30.04,10.0,SW,13.8,20.7,N/A,,Clear,230,2012-10-04 16:15:00
11:35 AM,72.9,55.4,54,30.03,10.0,SW,13.8,19.6,N/A,,Clear,220,2012-10-04 16:35:00
11:55 AM,74.7,55.6,51,30.02,10.0,SSW,15.0,20.7,N/A,Thunderstorm,Clear,200,2012-10-04 16:55:00
12:15 PM,75.6,54.5,48,30.01,10.0,SSW,17.3,21.9,N/A,,Clear,200,2012-10-04 17:15:00
12:35 PM,77.2,54.7,46,29.99,10.0,SSW,18.4,25.3,N/A,,Clear,210,2012-10-04 17:35:00
12:55 PM,77.4,54.9,46,30.00,10.0,SSW,15.0,24.2,N/A,,Clear,210,2012-10-04 17:55:00
1:15 PM,78.4,55.0,44,30.00,10.0,SW,17.3,21.9,N/A,,Clear,230,2012-10-04 18:15:00
1:35 PM,77.0,55.4,47,30.00,10.0,WSW,12.7,25.3,N/A,,Mostly Cloudy,240,2012-10-04 18:35:00
1:55 PM,76.3,55.4,48,30.00,10.0,WSW,16.1,25.3,N/A,,Mostly Cloudy,240,2012-10-04 18:55:00
2:15 PM,75.6,55.2,49,30.01,10.0,WSW,11.5,25.3,N/A,,Scattered Clouds,240,2012-10-04 19:15:00
2:35 PM,74.3,54.5,50,30.00,10.0,WSW,15.0,24.2,N/A,,Mostly Cloudy,250,2012-10-04 19:35:00
2:55 PM,74.3,54.0,49,30.01,10.0,WSW,17.3,23.0,N/A,,Mostly Cloudy,250,2012-10-04 19:55:00
3:15 PM,72.5,54.7,53,30.01,10.0,WSW,15.0,20.7,N/A,,Mostly Cloudy,250,2012-10-04 20:15:00
3:35 PM,71.1,56.1,59,30.02,10.0,WSW,15.0,21.9,N/A,Rain,Light Rain,250,2012-10-04 20:35:00
3:55 PM,72.1,54.9,54,30.02,10.0,WSW,13.8,23.0,N/A,,Mostly Cloudy,250,2012-10-04 20:55:00
4:15 PM,67.5,52.9,59,30.04,10.0,West,13.8,-,N/A,,Mostly Cloudy,280,2012-10-04 21:15:00
4:35 PM,65.5,51.3,60,30.06,10.0,WNW,17.3,20.7,N/A,,Scattered Clouds,290,2012-10-04 21:35:00
4:55 PM,63.9,48.9,58,30.06,10.0,West,19.6,-,N/A,,Mostly Cloudy,280,2012-10-04 21:55:00
5:15 PM,60.8,50.0,68,30.08,7.0,West,16.1,28.8,N/A,Rain,Rain,270,2012-10-04 22:15:00
5:35 PM,57.0,51.1,81,30.10,7.0,West,17.3,23.0,N/A,Rain,Rain,280,2012-10-04 22:35:00
5:55 PM,54.1,51.8,92,30.07,7.0,Calm,Calm,-,N/A,Rain,Rain,0,2012-10-04 22:55:00
6:15 PM,53.6,52.0,94,30.06,4.0,WSW,4.6,-,N/A,Rain,Rain,240,2012-10-04 23:15:00
6:35 PM,52.2,50.4,94,30.09,10.0,WNW,12.7,18.4,N/A,,Overcast,290,2012-10-04 23:35:00
6:55 PM,51.8,50.0,94,30.08,10.0,West,8.1,-,N/A,,Overcast,280,2012-10-04 23:55:00
7:15 PM,51.8,49.5,92,30.09,10.0,WNW,13.8,-,N/A,,Overcast,290,2012-10-05 00:15:00
7:35 PM,51.4,49.3,92,30.09,10.0,West,11.5,-,N/A,,Mostly Cloudy,280,2012-10-05 00:35:00
7:55 PM,51.8,50.0,94,30.09,10.0,West,9.2,-,N/A,,Overcast,280,2012-10-05 00:55:00
8:15 PM,52.0,49.3,90,30.10,10.0,West,9.2,-,N/A,,Overcast,260,2012-10-05 01:15:00
8:35 PM,52.0,49.1,90,30.09,10.0,West,10.4,-,N/A,,Overcast,280,2012-10-05 01:35:00
8:55 PM,52.0,49.1,90,30.09,10.0,West,8.1,-,N/A,,Overcast,280,2012-10-05 01:55:00
9:15 PM,52.0,48.6,88,30.10,10.0,West,9.2,-,N/A,Thunderstorm,Overcast,280,2012-10-05 02:15:00
9:35 PM,52.0,48.2,87,30.10,10.0,West,9.2,-,N/A,,Overcast,270,2012-10-05 02:35:00
9:55 PM,52.0,47.3,84,30.10,10.0,West,8.1,-,N/A,,Overcast,280,2012-10-05 02:55:00
10:15 PM,52.0,46.6,82,30.11,10.0,West,10.4,-,N/A,,Overcast,280,2012-10-05 03:15:00
10:35 PM,51.8,46.2,81,30.12,10.0,West,8.1,-,N/A,,Overcast,280,2012-10-05 03:35:00
10:55 PM,50.7,45.1,81,30.13,10.0,West,9.2,-,N/A,,Scattered Clouds,270,2012-10-05 03:55:00
11:15 PM,49.8,45.0,83,30.13,10.0,West,9.2,-,N/A,,Scattered Clouds,270,2012-10-05 04:15:00
11:35 PM,49.1,44.6,84,30.14,10.0,West,9.2,-,N/A,,Clear,280,2012-10-05 04:35:00
11:55 PM,48.2,43.9,85,30.13,10.0,WNW,6.9,-,N/A,,Clear,290,2012-10-05 04:55:00